sensor_id;sensor_type;location;lat;lon;timestamp;P1;durP1;ratioP1;P2;durP2;ratioP2
29246;SDS011;16272;48.188;9.964;2024-02-26T00:01:26;6.57;;;2.30;;
29246;SDS011;16272;48.188;9.964;2024-02-26T00:03:52;6.95;;;2.58;;
29246;SDS011;16272;48.188;9.964;2024-02-26T00:06:19;6.93;;;2.40;;
29246;SDS011;16272;48.188;9.964;2024-02-26T00:08:44;7.03;;;2.50;;
29246;SDS011;16272;48.188;9.964;2024-02-26T00:11:10;6.87;;;2.50;;
29246;SDS011;16272;48.188;9.964;2024-02-26T00:13:35;7.03;;;2.58;;
29246;SDS011;16272;48.188;9.964;2024-02-26T00:16:01;7.50;;;2.53;;
29246;SDS011;16272;48.188;9.964;2024-02-26T00:18:27;7.10;;;2.60;;
29246;SDS011;16272;48.188;9.964;2024-02-26T00:20:52;7.63;;;2.60;;
29246;SDS011;16272;48.188;9.964;2024-02-26T00:23:17;7.23;;;2.63;;
29246;SDS011;16272;48.188;9.964;2024-02-26T00:25:43;8.00;;;2.97;;
29246;SDS011;16272;48.188;9.964;2024-02-26T00:28:08;6.72;;;2.45;;
29246;SDS011;16272;48.188;9.964;2024-02-26T00:30:35;6.65;;;2.60;;
29246;SDS011;16272;48.188;9.964;2024-02-26T00:33:00;7.13;;;2.73;;
29246;SDS011;16272;48.188;9.964;2024-02-26T00:35:25;7.07;;;2.53;;
29246;SDS011;16272;48.188;9.964;2024-02-26T00:37:51;6.97;;;2.60;;
29246;SDS011;16272;48.188;9.964;2024-02-26T00:40:16;6.75;;;2.53;;
29246;SDS011;16272;48.188;9.964;2024-02-26T00:42:41;7.70;;;2.60;;
29246;SDS011;16272;48.188;9.964;2024-02-26T00:45:11;7.55;;;2.85;;
29246;SDS011;16272;48.188;9.964;2024-02-26T00:47:36;7.13;;;2.60;;
29246;SDS011;16272;48.188;9.964;2024-02-26T00:50:02;7.07;;;2.47;;
29246;SDS011;16272;48.188;9.964;2024-02-26T00:52:27;6.90;;;2.40;;
29246;SDS011;16272;48.188;9.964;2024-02-26T00:54:52;7.20;;;2.40;;
29246;SDS011;16272;48.188;9.964;2024-02-26T00:57:18;8.17;;;3.00;;
29246;SDS011;16272;48.188;9.964;2024-02-26T00:59:43;8.17;;;2.90;;
29246;SDS011;16272;48.188;9.964;2024-02-26T01:02:08;7.90;;;2.97;;
29246;SDS011;16272;48.188;9.964;2024-02-26T01:04:34;8.17;;;3.03;;
29246;SDS011;16272;48.188;9.964;2024-02-26T01:06:59;8.35;;;3.25;;
29246;SDS011;16272;48.188;9.964;2024-02-26T01:09:24;8.70;;;3.10;;
29246;SDS011;16272;48.188;9.964;2024-02-26T01:11:50;6.80;;;2.40;;
29246;SDS011;16272;48.188;9.964;2024-02-26T01:14:15;7.20;;;2.60;;
29246;SDS011;16272;48.188;9.964;2024-02-26T01:16:40;6.97;;;2.63;;
29246;SDS011;16272;48.188;9.964;2024-02-26T01:19:06;7.60;;;2.50;;
29246;SDS011;16272;48.188;9.964;2024-02-26T01:21:31;7.00;;;2.50;;
29246;SDS011;16272;48.188;9.964;2024-02-26T01:23:57;7.33;;;2.60;;
29246;SDS011;16272;48.188;9.964;2024-02-26T01:26:22;7.03;;;2.40;;
29246;SDS011;16272;48.188;9.964;2024-02-26T01:28:47;7.27;;;2.80;;
29246;SDS011;16272;48.188;9.964;2024-02-26T01:31:13;7.70;;;2.55;;
29246;SDS011;16272;48.188;9.964;2024-02-26T01:33:38;7.83;;;2.70;;
29246;SDS011;16272;48.188;9.964;2024-02-26T01:36:04;7.53;;;3.00;;
29246;SDS011;16272;48.188;9.964;2024-02-26T01:38:29;7.80;;;3.17;;
29246;SDS011;16272;48.188;9.964;2024-02-26T01:40:54;7.70;;;3.00;;
29246;SDS011;16272;48.188;9.964;2024-02-26T01:43:19;7.30;;;2.90;;
29246;SDS011;16272;48.188;9.964;2024-02-26T01:45:45;7.37;;;2.83;;
29246;SDS011;16272;48.188;9.964;2024-02-26T01:48:10;8.00;;;2.90;;
29246;SDS011;16272;48.188;9.964;2024-02-26T01:50:35;7.60;;;2.70;;
29246;SDS011;16272;48.188;9.964;2024-02-26T01:53:03;7.53;;;2.92;;
29246;SDS011;16272;48.188;9.964;2024-02-26T01:55:29;7.35;;;2.90;;
29246;SDS011;16272;48.188;9.964;2024-02-26T01:57:54;7.50;;;2.80;;
29246;SDS011;16272;48.188;9.964;2024-02-26T02:00:20;6.87;;;2.50;;
29246;SDS011;16272;48.188;9.964;2024-02-26T02:02:46;7.40;;;2.60;;
29246;SDS011;16272;48.188;9.964;2024-02-26T02:05:13;7.00;;;2.30;;
29246;SDS011;16272;48.188;9.964;2024-02-26T02:07:41;6.43;;;2.42;;
29246;SDS011;16272;48.188;9.964;2024-02-26T02:10:06;6.97;;;2.60;;
29246;SDS011;16272;48.188;9.964;2024-02-26T02:12:32;7.35;;;2.70;;
29246;SDS011;16272;48.188;9.964;2024-02-26T02:14:59;7.18;;;2.60;;
29246;SDS011;16272;48.188;9.964;2024-02-26T02:17:25;7.20;;;2.53;;
29246;SDS011;16272;48.188;9.964;2024-02-26T02:19:52;7.50;;;2.90;;
29246;SDS011;16272;48.188;9.964;2024-02-26T02:22:18;8.20;;;3.00;;
29246;SDS011;16272;48.188;9.964;2024-02-26T02:24:44;6.90;;;2.67;;
29246;SDS011;16272;48.188;9.964;2024-02-26T02:27:10;8.73;;;3.50;;
29246;SDS011;16272;48.188;9.964;2024-02-26T02:29:35;8.93;;;3.47;;
29246;SDS011;16272;48.188;9.964;2024-02-26T02:32:01;9.13;;;3.67;;
29246;SDS011;16272;48.188;9.964;2024-02-26T02:34:28;7.68;;;2.83;;
29246;SDS011;16272;48.188;9.964;2024-02-26T02:36:54;7.75;;;3.22;;
29246;SDS011;16272;48.188;9.964;2024-02-26T02:39:20;7.50;;;3.20;;
29246;SDS011;16272;48.188;9.964;2024-02-26T02:41:46;7.77;;;3.00;;
29246;SDS011;16272;48.188;9.964;2024-02-26T02:44:11;7.85;;;3.35;;
29246;SDS011;16272;48.188;9.964;2024-02-26T02:46:37;7.87;;;2.90;;
29246;SDS011;16272;48.188;9.964;2024-02-26T02:49:03;7.63;;;3.28;;
29246;SDS011;16272;48.188;9.964;2024-02-26T02:51:28;7.60;;;3.20;;
29246;SDS011;16272;48.188;9.964;2024-02-26T02:53:53;7.97;;;3.17;;
29246;SDS011;16272;48.188;9.964;2024-02-26T02:56:18;8.50;;;3.20;;
29246;SDS011;16272;48.188;9.964;2024-02-26T02:58:44;9.27;;;3.50;;
29246;SDS011;16272;48.188;9.964;2024-02-26T03:01:09;8.38;;;3.28;;
29246;SDS011;16272;48.188;9.964;2024-02-26T03:03:35;8.20;;;3.03;;
29246;SDS011;16272;48.188;9.964;2024-02-26T03:06:01;7.72;;;3.38;;
29246;SDS011;16272;48.188;9.964;2024-02-26T03:08:27;6.90;;;2.72;;
29246;SDS011;16272;48.188;9.964;2024-02-26T03:10:52;7.77;;;3.27;;
29246;SDS011;16272;48.188;9.964;2024-02-26T03:13:19;8.27;;;3.10;;
29246;SDS011;16272;48.188;9.964;2024-02-26T03:15:44;7.80;;;2.33;;
29246;SDS011;16272;48.188;9.964;2024-02-26T03:18:09;7.90;;;2.90;;
29246;SDS011;16272;48.188;9.964;2024-02-26T03:20:35;7.60;;;2.90;;
29246;SDS011;16272;48.188;9.964;2024-02-26T03:23:00;7.47;;;2.80;;
29246;SDS011;16272;48.188;9.964;2024-02-26T03:25:25;7.93;;;3.10;;
29246;SDS011;16272;48.188;9.964;2024-02-26T03:27:50;8.15;;;3.05;;
29246;SDS011;16272;48.188;9.964;2024-02-26T03:30:16;8.97;;;3.33;;
29246;SDS011;16272;48.188;9.964;2024-02-26T03:32:41;8.77;;;3.40;;
29246;SDS011;16272;48.188;9.964;2024-02-26T03:35:06;7.80;;;3.30;;
29246;SDS011;16272;48.188;9.964;2024-02-26T03:37:33;7.90;;;3.17;;
29246;SDS011;16272;48.188;9.964;2024-02-26T03:39:58;7.43;;;3.00;;
29246;SDS011;16272;48.188;9.964;2024-02-26T03:42:24;7.68;;;3.10;;
29246;SDS011;16272;48.188;9.964;2024-02-26T03:44:49;7.50;;;2.90;;
29246;SDS011;16272;48.188;9.964;2024-02-26T03:47:15;7.30;;;2.67;;
29246;SDS011;16272;48.188;9.964;2024-02-26T03:49:41;7.47;;;2.95;;
29246;SDS011;16272;48.188;9.964;2024-02-26T03:52:06;7.47;;;2.90;;
29246;SDS011;16272;48.188;9.964;2024-02-26T03:54:32;8.43;;;3.00;;
29246;SDS011;16272;48.188;9.964;2024-02-26T03:56:57;7.10;;;2.70;;
29246;SDS011;16272;48.188;9.964;2024-02-26T03:59:22;6.90;;;2.60;;
29246;SDS011;16272;48.188;9.964;2024-02-26T04:01:49;7.40;;;2.70;;
29246;SDS011;16272;48.188;9.964;2024-02-26T04:04:15;8.47;;;3.00;;
29246;SDS011;16272;48.188;9.964;2024-02-26T04:06:44;7.60;;;2.90;;
29246;SDS011;16272;48.188;9.964;2024-02-26T04:09:15;7.85;;;2.83;;
29246;SDS011;16272;48.188;9.964;2024-02-26T04:11:40;8.70;;;3.08;;
29246;SDS011;16272;48.188;9.964;2024-02-26T04:14:06;8.23;;;3.10;;
29246;SDS011;16272;48.188;9.964;2024-02-26T04:16:33;7.90;;;2.90;;
29246;SDS011;16272;48.188;9.964;2024-02-26T04:18:59;7.15;;;2.88;;
29246;SDS011;16272;48.188;9.964;2024-02-26T04:21:24;7.20;;;3.00;;
29246;SDS011;16272;48.188;9.964;2024-02-26T04:23:49;6.77;;;2.57;;
29246;SDS011;16272;48.188;9.964;2024-02-26T04:26:15;7.37;;;3.10;;
29246;SDS011;16272;48.188;9.964;2024-02-26T04:28:41;8.10;;;3.10;;
29246;SDS011;16272;48.188;9.964;2024-02-26T04:31:06;7.60;;;2.97;;
29246;SDS011;16272;48.188;9.964;2024-02-26T04:33:33;7.47;;;3.20;;
29246;SDS011;16272;48.188;9.964;2024-02-26T04:35:59;7.40;;;2.90;;
29246;SDS011;16272;48.188;9.964;2024-02-26T04:38:25;7.60;;;3.00;;
29246;SDS011;16272;48.188;9.964;2024-02-26T04:40:51;8.52;;;3.47;;
29246;SDS011;16272;48.188;9.964;2024-02-26T04:43:16;8.13;;;3.50;;
29246;SDS011;16272;48.188;9.964;2024-02-26T04:45:43;7.97;;;3.53;;
29246;SDS011;16272;48.188;9.964;2024-02-26T04:48:08;8.00;;;3.27;;
29246;SDS011;16272;48.188;9.964;2024-02-26T04:50:33;7.77;;;3.57;;
29246;SDS011;16272;48.188;9.964;2024-02-26T04:52:59;8.43;;;3.70;;
29246;SDS011;16272;48.188;9.964;2024-02-26T04:55:24;8.97;;;3.90;;
29246;SDS011;16272;48.188;9.964;2024-02-26T04:57:49;8.50;;;3.60;;
29246;SDS011;16272;48.188;9.964;2024-02-26T05:00:15;8.77;;;4.00;;
29246;SDS011;16272;48.188;9.964;2024-02-26T05:02:40;8.70;;;4.00;;
29246;SDS011;16272;48.188;9.964;2024-02-26T05:05:06;8.60;;;3.93;;
29246;SDS011;16272;48.188;9.964;2024-02-26T05:07:31;8.13;;;3.70;;
29246;SDS011;16272;48.188;9.964;2024-02-26T05:09:57;8.80;;;3.80;;
29246;SDS011;16272;48.188;9.964;2024-02-26T05:12:22;10.40;;;4.50;;
29246;SDS011;16272;48.188;9.964;2024-02-26T05:14:48;9.15;;;4.28;;
29246;SDS011;16272;48.188;9.964;2024-02-26T05:17:13;10.07;;;4.27;;
29246;SDS011;16272;48.188;9.964;2024-02-26T05:19:38;9.73;;;4.30;;
29246;SDS011;16272;48.188;9.964;2024-02-26T05:22:03;8.97;;;4.10;;
29246;SDS011;16272;48.188;9.964;2024-02-26T05:24:29;9.20;;;4.30;;
29246;SDS011;16272;48.188;9.964;2024-02-26T05:26:54;10.73;;;4.50;;
29246;SDS011;16272;48.188;9.964;2024-02-26T05:29:20;10.40;;;4.90;;
29246;SDS011;16272;48.188;9.964;2024-02-26T05:31:45;10.53;;;5.03;;
29246;SDS011;16272;48.188;9.964;2024-02-26T05:34:11;10.60;;;4.97;;
29246;SDS011;16272;48.188;9.964;2024-02-26T05:36:36;10.47;;;4.90;;
29246;SDS011;16272;48.188;9.964;2024-02-26T05:39:01;9.80;;;4.60;;
29246;SDS011;16272;48.188;9.964;2024-02-26T05:41:28;10.23;;;4.77;;
29246;SDS011;16272;48.188;9.964;2024-02-26T05:43:54;11.07;;;4.80;;
29246;SDS011;16272;48.188;9.964;2024-02-26T05:46:19;10.63;;;5.00;;
29246;SDS011;16272;48.188;9.964;2024-02-26T05:48:50;10.45;;;5.00;;
29246;SDS011;16272;48.188;9.964;2024-02-26T05:51:16;11.07;;;4.70;;
29246;SDS011;16272;48.188;9.964;2024-02-26T05:53:42;11.10;;;4.43;;
29246;SDS011;16272;48.188;9.964;2024-02-26T05:56:07;10.20;;;4.90;;
29246;SDS011;16272;48.188;9.964;2024-02-26T05:58:33;9.40;;;4.40;;
29246;SDS011;16272;48.188;9.964;2024-02-26T06:00:58;9.50;;;4.10;;
29246;SDS011;16272;48.188;9.964;2024-02-26T06:03:25;9.73;;;4.55;;
29246;SDS011;16272;48.188;9.964;2024-02-26T06:05:50;9.63;;;4.30;;
29246;SDS011;16272;48.188;9.964;2024-02-26T06:08:15;9.77;;;4.67;;
29246;SDS011;16272;48.188;9.964;2024-02-26T06:10:41;10.55;;;4.82;;
29246;SDS011;16272;48.188;9.964;2024-02-26T06:13:06;10.70;;;4.90;;
29246;SDS011;16272;48.188;9.964;2024-02-26T06:15:31;11.27;;;5.00;;
29246;SDS011;16272;48.188;9.964;2024-02-26T06:17:56;10.17;;;4.40;;
29246;SDS011;16272;48.188;9.964;2024-02-26T06:20:22;9.50;;;4.30;;
29246;SDS011;16272;48.188;9.964;2024-02-26T06:22:47;10.20;;;4.50;;
29246;SDS011;16272;48.188;9.964;2024-02-26T06:25:12;10.60;;;4.73;;
29246;SDS011;16272;48.188;9.964;2024-02-26T06:27:38;12.10;;;6.30;;
29246;SDS011;16272;48.188;9.964;2024-02-26T06:30:03;10.67;;;5.10;;
29246;SDS011;16272;48.188;9.964;2024-02-26T06:32:29;12.70;;;6.00;;
29246;SDS011;16272;48.188;9.964;2024-02-26T06:34:55;11.93;;;5.73;;
29246;SDS011;16272;48.188;9.964;2024-02-26T06:37:20;12.17;;;6.30;;
29246;SDS011;16272;48.188;9.964;2024-02-26T06:39:45;10.90;;;5.87;;
29246;SDS011;16272;48.188;9.964;2024-02-26T06:42:11;11.27;;;5.47;;
29246;SDS011;16272;48.188;9.964;2024-02-26T06:44:37;11.73;;;5.27;;
29246;SDS011;16272;48.188;9.964;2024-02-26T06:47:02;11.02;;;5.47;;
29246;SDS011;16272;48.188;9.964;2024-02-26T06:49:27;12.30;;;5.50;;
29246;SDS011;16272;48.188;9.964;2024-02-26T06:51:53;11.70;;;5.60;;
29246;SDS011;16272;48.188;9.964;2024-02-26T06:54:18;10.73;;;5.30;;
29246;SDS011;16272;48.188;9.964;2024-02-26T06:56:44;12.15;;;5.68;;
29246;SDS011;16272;48.188;9.964;2024-02-26T06:59:09;12.73;;;5.67;;
29246;SDS011;16272;48.188;9.964;2024-02-26T07:01:35;11.10;;;5.50;;
29246;SDS011;16272;48.188;9.964;2024-02-26T07:04:00;13.63;;;5.80;;
29246;SDS011;16272;48.188;9.964;2024-02-26T07:06:25;12.73;;;6.33;;
29246;SDS011;16272;48.188;9.964;2024-02-26T07:08:52;11.73;;;5.78;;
29246;SDS011;16272;48.188;9.964;2024-02-26T07:11:17;11.60;;;5.63;;
29246;SDS011;16272;48.188;9.964;2024-02-26T07:13:44;11.95;;;5.63;;
29246;SDS011;16272;48.188;9.964;2024-02-26T07:16:10;10.93;;;5.30;;
29246;SDS011;16272;48.188;9.964;2024-02-26T07:18:35;11.70;;;5.43;;
29246;SDS011;16272;48.188;9.964;2024-02-26T07:21:03;10.73;;;5.10;;
29246;SDS011;16272;48.188;9.964;2024-02-26T07:23:29;11.32;;;5.28;;
29246;SDS011;16272;48.188;9.964;2024-02-26T07:25:54;10.57;;;5.10;;
29246;SDS011;16272;48.188;9.964;2024-02-26T07:28:20;11.53;;;5.53;;
29246;SDS011;16272;48.188;9.964;2024-02-26T07:30:45;11.70;;;5.20;;
29246;SDS011;16272;48.188;9.964;2024-02-26T07:33:10;10.80;;;5.40;;
29246;SDS011;16272;48.188;9.964;2024-02-26T07:35:36;10.57;;;5.05;;
29246;SDS011;16272;48.188;9.964;2024-02-26T07:38:03;12.25;;;5.82;;
29246;SDS011;16272;48.188;9.964;2024-02-26T07:40:29;12.20;;;5.60;;
29246;SDS011;16272;48.188;9.964;2024-02-26T07:42:54;11.13;;;5.67;;
29246;SDS011;16272;48.188;9.964;2024-02-26T07:45:20;13.13;;;6.05;;
29246;SDS011;16272;48.188;9.964;2024-02-26T07:47:46;12.77;;;6.33;;
29246;SDS011;16272;48.188;9.964;2024-02-26T07:50:12;13.10;;;6.30;;
29246;SDS011;16272;48.188;9.964;2024-02-26T07:52:37;11.97;;;6.60;;
29246;SDS011;16272;48.188;9.964;2024-02-26T07:55:03;13.00;;;6.33;;
29246;SDS011;16272;48.188;9.964;2024-02-26T07:57:29;12.30;;;6.15;;
29246;SDS011;16272;48.188;9.964;2024-02-26T07:59:54;12.23;;;5.80;;
29246;SDS011;16272;48.188;9.964;2024-02-26T08:02:20;12.60;;;6.10;;
29246;SDS011;16272;48.188;9.964;2024-02-26T08:04:46;13.27;;;5.97;;
29246;SDS011;16272;48.188;9.964;2024-02-26T08:07:12;12.77;;;6.28;;
29246;SDS011;16272;48.188;9.964;2024-02-26T08:09:37;12.50;;;6.40;;
29246;SDS011;16272;48.188;9.964;2024-02-26T08:12:03;12.13;;;6.10;;
29246;SDS011;16272;48.188;9.964;2024-02-26T08:14:28;12.87;;;6.17;;
29246;SDS011;16272;48.188;9.964;2024-02-26T08:16:53;12.70;;;6.53;;
29246;SDS011;16272;48.188;9.964;2024-02-26T08:19:19;12.98;;;6.60;;
29246;SDS011;16272;48.188;9.964;2024-02-26T08:21:44;15.30;;;7.03;;
29246;SDS011;16272;48.188;9.964;2024-02-26T08:24:09;13.33;;;6.73;;
29246;SDS011;16272;48.188;9.964;2024-02-26T08:26:35;13.57;;;6.70;;
29246;SDS011;16272;48.188;9.964;2024-02-26T08:29:00;13.63;;;6.77;;
29246;SDS011;16272;48.188;9.964;2024-02-26T08:31:25;12.73;;;6.43;;
29246;SDS011;16272;48.188;9.964;2024-02-26T08:33:52;14.47;;;6.70;;
29246;SDS011;16272;48.188;9.964;2024-02-26T08:36:17;13.13;;;6.97;;
29246;SDS011;16272;48.188;9.964;2024-02-26T08:38:42;12.35;;;6.30;;
29246;SDS011;16272;48.188;9.964;2024-02-26T08:41:08;14.27;;;7.07;;
29246;SDS011;16272;48.188;9.964;2024-02-26T08:43:33;13.80;;;7.00;;
29246;SDS011;16272;48.188;9.964;2024-02-26T08:45:58;12.17;;;6.00;;
29246;SDS011;16272;48.188;9.964;2024-02-26T08:48:23;14.40;;;7.33;;
29246;SDS011;16272;48.188;9.964;2024-02-26T08:50:49;13.87;;;7.00;;
29246;SDS011;16272;48.188;9.964;2024-02-26T08:53:14;14.47;;;7.10;;
29246;SDS011;16272;48.188;9.964;2024-02-26T08:55:39;13.53;;;6.97;;
29246;SDS011;16272;48.188;9.964;2024-02-26T08:58:05;13.90;;;7.22;;
29246;SDS011;16272;48.188;9.964;2024-02-26T09:00:30;14.37;;;7.23;;
29246;SDS011;16272;48.188;9.964;2024-02-26T09:02:56;14.50;;;7.80;;
29246;SDS011;16272;48.188;9.964;2024-02-26T09:05:21;14.70;;;7.60;;
29246;SDS011;16272;48.188;9.964;2024-02-26T09:07:46;14.30;;;7.50;;
29246;SDS011;16272;48.188;9.964;2024-02-26T09:10:11;14.20;;;7.53;;
29246;SDS011;16272;48.188;9.964;2024-02-26T09:12:37;14.32;;;7.03;;
29246;SDS011;16272;48.188;9.964;2024-02-26T09:15:05;14.95;;;7.55;;
29246;SDS011;16272;48.188;9.964;2024-02-26T09:17:31;14.70;;;7.47;;
29246;SDS011;16272;48.188;9.964;2024-02-26T09:19:56;14.87;;;7.10;;
29246;SDS011;16272;48.188;9.964;2024-02-26T09:22:21;14.27;;;7.60;;
29246;SDS011;16272;48.188;9.964;2024-02-26T09:24:47;14.50;;;7.40;;
29246;SDS011;16272;48.188;9.964;2024-02-26T09:27:15;13.07;;;6.80;;
29246;SDS011;16272;48.188;9.964;2024-02-26T09:29:40;14.15;;;7.30;;
29246;SDS011;16272;48.188;9.964;2024-02-26T09:32:06;15.20;;;7.00;;
29246;SDS011;16272;48.188;9.964;2024-02-26T09:34:31;14.83;;;7.40;;
29246;SDS011;16272;48.188;9.964;2024-02-26T09:36:56;14.27;;;7.47;;
29246;SDS011;16272;48.188;9.964;2024-02-26T09:39:22;14.87;;;7.33;;
29246;SDS011;16272;48.188;9.964;2024-02-26T09:41:47;13.27;;;7.00;;
29246;SDS011;16272;48.188;9.964;2024-02-26T09:44:15;14.10;;;7.25;;
29246;SDS011;16272;48.188;9.964;2024-02-26T09:46:44;12.82;;;6.57;;
29246;SDS011;16272;48.188;9.964;2024-02-26T09:49:10;12.90;;;6.60;;
29246;SDS011;16272;48.188;9.964;2024-02-26T09:51:37;11.07;;;5.10;;
29246;SDS011;16272;48.188;9.964;2024-02-26T09:54:04;11.15;;;5.20;;
29246;SDS011;16272;48.188;9.964;2024-02-26T09:56:32;10.75;;;5.20;;
29246;SDS011;16272;48.188;9.964;2024-02-26T09:58:57;10.97;;;5.40;;
29246;SDS011;16272;48.188;9.964;2024-02-26T10:01:23;10.30;;;5.20;;
29246;SDS011;16272;48.188;9.964;2024-02-26T10:03:56;11.07;;;5.50;;
29246;SDS011;16272;48.188;9.964;2024-02-26T10:06:23;11.30;;;5.70;;
29246;SDS011;16272;48.188;9.964;2024-02-26T10:08:51;11.00;;;5.60;;
29246;SDS011;16272;48.188;9.964;2024-02-26T10:11:16;10.77;;;5.47;;
29246;SDS011;16272;48.188;9.964;2024-02-26T10:13:42;11.45;;;5.70;;
29246;SDS011;16272;48.188;9.964;2024-02-26T10:16:07;11.27;;;5.50;;
29246;SDS011;16272;48.188;9.964;2024-02-26T10:21:11;11.65;;;5.50;;
29246;SDS011;16272;48.188;9.964;2024-02-26T10:23:36;11.17;;;5.90;;
29246;SDS011;16272;48.188;9.964;2024-02-26T10:26:02;11.33;;;5.97;;
29246;SDS011;16272;48.188;9.964;2024-02-26T10:28:29;11.63;;;5.73;;
29246;SDS011;16272;48.188;9.964;2024-02-26T10:30:54;11.93;;;5.70;;
29246;SDS011;16272;48.188;9.964;2024-02-26T10:33:20;11.60;;;5.80;;
29246;SDS011;16272;48.188;9.964;2024-02-26T10:35:46;11.43;;;5.63;;
29246;SDS011;16272;48.188;9.964;2024-02-26T10:38:11;12.07;;;6.00;;
29246;SDS011;16272;48.188;9.964;2024-02-26T10:40:37;11.05;;;5.88;;
29246;SDS011;16272;48.188;9.964;2024-02-26T10:43:02;11.47;;;5.50;;
29246;SDS011;16272;48.188;9.964;2024-02-26T10:45:28;10.87;;;5.50;;
29246;SDS011;16272;48.188;9.964;2024-02-26T10:47:53;11.43;;;5.60;;
29246;SDS011;16272;48.188;9.964;2024-02-26T10:50:19;11.57;;;6.17;;
29246;SDS011;16272;48.188;9.964;2024-02-26T10:52:44;12.20;;;6.00;;
29246;SDS011;16272;48.188;9.964;2024-02-26T10:55:13;11.80;;;5.90;;
29246;SDS011;16272;48.188;9.964;2024-02-26T10:57:45;12.15;;;5.80;;
29246;SDS011;16272;48.188;9.964;2024-02-26T11:00:15;11.73;;;5.70;;
29246;SDS011;16272;48.188;9.964;2024-02-26T11:02:41;12.38;;;6.03;;
29246;SDS011;16272;48.188;9.964;2024-02-26T11:05:07;12.87;;;5.93;;
29246;SDS011;16272;48.188;9.964;2024-02-26T11:07:35;12.63;;;6.22;;
29246;SDS011;16272;48.188;9.964;2024-02-26T11:10:02;13.25;;;6.00;;
29246;SDS011;16272;48.188;9.964;2024-02-26T11:12:29;16.10;;;8.77;;
29246;SDS011;16272;48.188;9.964;2024-02-26T11:14:56;13.65;;;7.55;;
29246;SDS011;16272;48.188;9.964;2024-02-26T11:17:23;13.75;;;7.28;;
29246;SDS011;16272;48.188;9.964;2024-02-26T11:19:53;13.73;;;6.85;;
29246;SDS011;16272;48.188;9.964;2024-02-26T11:22:20;13.55;;;6.78;;
29246;SDS011;16272;48.188;9.964;2024-02-26T11:24:47;11.75;;;5.50;;
29246;SDS011;16272;48.188;9.964;2024-02-26T11:27:13;12.35;;;5.35;;
29246;SDS011;16272;48.188;9.964;2024-02-26T11:29:43;9.70;;;4.68;;
29246;SDS011;16272;48.188;9.964;2024-02-26T11:32:12;10.48;;;4.60;;
29246;SDS011;16272;48.188;9.964;2024-02-26T11:34:38;10.27;;;4.60;;
29246;SDS011;16272;48.188;9.964;2024-02-26T11:37:37;11.00;;;4.97;;
29246;SDS011;16272;48.188;9.964;2024-02-26T11:39:55;10.35;;;4.90;;
29246;SDS011;16272;48.188;9.964;2024-02-26T11:42:24;10.65;;;4.93;;
29246;SDS011;16272;48.188;9.964;2024-02-26T11:44:50;10.18;;;4.60;;
29246;SDS011;16272;48.188;9.964;2024-02-26T11:47:19;10.90;;;4.83;;
29246;SDS011;16272;48.188;9.964;2024-02-26T11:49:46;9.57;;;4.57;;
29246;SDS011;16272;48.188;9.964;2024-02-26T11:52:12;8.98;;;4.22;;
29246;SDS011;16272;48.188;9.964;2024-02-26T11:54:57;10.65;;;4.63;;
29246;SDS011;16272;48.188;9.964;2024-02-26T11:59:56;9.97;;;4.60;;
29246;SDS011;16272;48.188;9.964;2024-02-26T12:02:38;10.30;;;4.75;;
29246;SDS011;16272;48.188;9.964;2024-02-26T12:07:42;10.98;;;4.78;;
29246;SDS011;16272;48.188;9.964;2024-02-26T12:10:17;10.65;;;4.65;;
29246;SDS011;16272;48.188;9.964;2024-02-26T12:13:04;10.13;;;4.72;;
29246;SDS011;16272;48.188;9.964;2024-02-26T12:15:33;9.55;;;5.18;;
29246;SDS011;16272;48.188;9.964;2024-02-26T12:18:02;9.80;;;4.27;;
29246;SDS011;16272;48.188;9.964;2024-02-26T12:20:29;9.00;;;4.20;;
29246;SDS011;16272;48.188;9.964;2024-02-26T12:22:54;9.50;;;4.28;;
29246;SDS011;16272;48.188;9.964;2024-02-26T12:25:25;8.77;;;4.20;;
29246;SDS011;16272;48.188;9.964;2024-02-26T12:27:53;8.97;;;4.10;;
29246;SDS011;16272;48.188;9.964;2024-02-26T12:30:19;8.98;;;4.20;;
29246;SDS011;16272;48.188;9.964;2024-02-26T12:32:44;9.73;;;4.17;;
29246;SDS011;16272;48.188;9.964;2024-02-26T12:35:11;10.25;;;4.72;;
29246;SDS011;16272;48.188;9.964;2024-02-26T12:37:37;9.10;;;4.25;;
29246;SDS011;16272;48.188;9.964;2024-02-26T12:40:07;9.07;;;4.18;;
29246;SDS011;16272;48.188;9.964;2024-02-26T12:42:33;8.95;;;4.15;;
29246;SDS011;16272;48.188;9.964;2024-02-26T12:45:04;9.48;;;4.32;;
29246;SDS011;16272;48.188;9.964;2024-02-26T12:47:34;9.80;;;4.45;;
29246;SDS011;16272;48.188;9.964;2024-02-26T12:50:06;9.05;;;3.95;;
29246;SDS011;16272;48.188;9.964;2024-02-26T12:52:33;9.45;;;4.63;;
29246;SDS011;16272;48.188;9.964;2024-02-26T12:55:00;10.38;;;4.82;;
29246;SDS011;16272;48.188;9.964;2024-02-26T12:57:28;10.00;;;4.78;;
29246;SDS011;16272;48.188;9.964;2024-02-26T12:59:55;9.73;;;4.60;;
29246;SDS011;16272;48.188;9.964;2024-02-26T13:02:21;9.57;;;4.65;;
29246;SDS011;16272;48.188;9.964;2024-02-26T13:04:47;11.07;;;4.87;;
29246;SDS011;16272;48.188;9.964;2024-02-26T13:07:12;10.20;;;4.88;;
29246;SDS011;16272;48.188;9.964;2024-02-26T13:09:38;10.63;;;5.30;;
29246;SDS011;16272;48.188;9.964;2024-02-26T13:12:04;10.20;;;4.90;;
29246;SDS011;16272;48.188;9.964;2024-02-26T13:14:31;10.50;;;5.20;;
29246;SDS011;16272;48.188;9.964;2024-02-26T13:16:57;10.25;;;5.07;;
29246;SDS011;16272;48.188;9.964;2024-02-26T13:19:23;10.50;;;5.22;;
29246;SDS011;16272;48.188;9.964;2024-02-26T13:21:49;12.35;;;5.30;;
29246;SDS011;16272;48.188;9.964;2024-02-26T13:24:14;11.20;;;5.90;;
29246;SDS011;16272;48.188;9.964;2024-02-26T13:26:39;11.43;;;6.10;;
29246;SDS011;16272;48.188;9.964;2024-02-26T13:29:05;12.47;;;5.90;;
29246;SDS011;16272;48.188;9.964;2024-02-26T13:31:30;11.23;;;5.20;;
29246;SDS011;16272;48.188;9.964;2024-02-26T13:33:56;11.23;;;4.80;;
29246;SDS011;16272;48.188;9.964;2024-02-26T13:36:22;9.50;;;4.38;;
29246;SDS011;16272;48.188;9.964;2024-02-26T13:38:51;10.97;;;5.10;;
29246;SDS011;16272;48.188;9.964;2024-02-26T13:41:18;12.00;;;5.70;;
29246;SDS011;16272;48.188;9.964;2024-02-26T13:43:43;11.27;;;5.53;;
29246;SDS011;16272;48.188;9.964;2024-02-26T13:46:09;11.77;;;5.70;;
29246;SDS011;16272;48.188;9.964;2024-02-26T13:48:35;11.70;;;5.67;;
29246;SDS011;16272;48.188;9.964;2024-02-26T13:51:01;12.75;;;5.32;;
29246;SDS011;16272;48.188;9.964;2024-02-26T13:55:51;11.70;;;5.10;;
29246;SDS011;16272;48.188;9.964;2024-02-26T13:58:17;12.20;;;5.73;;
29246;SDS011;16272;48.188;9.964;2024-02-26T14:00:47;12.07;;;5.78;;
29246;SDS011;16272;48.188;9.964;2024-02-26T14:03:13;11.10;;;5.70;;
29246;SDS011;16272;48.188;9.964;2024-02-26T14:05:38;11.07;;;5.45;;
29246;SDS011;16272;48.188;9.964;2024-02-26T14:08:03;12.63;;;5.10;;
29246;SDS011;16272;48.188;9.964;2024-02-26T14:10:29;11.33;;;5.97;;
29246;SDS011;16272;48.188;9.964;2024-02-26T14:12:55;11.63;;;5.30;;
29246;SDS011;16272;48.188;9.964;2024-02-26T14:15:21;11.87;;;5.40;;
29246;SDS011;16272;48.188;9.964;2024-02-26T14:17:46;11.10;;;5.53;;
29246;SDS011;16272;48.188;9.964;2024-02-26T14:20:18;11.23;;;5.53;;
29246;SDS011;16272;48.188;9.964;2024-02-26T14:22:43;12.23;;;5.50;;
29246;SDS011;16272;48.188;9.964;2024-02-26T14:25:08;11.73;;;5.87;;
29246;SDS011;16272;48.188;9.964;2024-02-26T14:27:34;11.68;;;5.32;;
29246;SDS011;16272;48.188;9.964;2024-02-26T14:29:59;11.73;;;5.50;;
29246;SDS011;16272;48.188;9.964;2024-02-26T14:32:25;11.63;;;5.57;;
29246;SDS011;16272;48.188;9.964;2024-02-26T14:34:50;12.10;;;5.70;;
29246;SDS011;16272;48.188;9.964;2024-02-26T14:37:16;11.60;;;5.35;;
29246;SDS011;16272;48.188;9.964;2024-02-26T14:39:41;11.03;;;5.70;;
29246;SDS011;16272;48.188;9.964;2024-02-26T14:42:06;11.30;;;5.70;;
29246;SDS011;16272;48.188;9.964;2024-02-26T14:44:31;11.97;;;5.40;;